createdAt,value
2019-03-08T00:00:48.139Z,58.67
2019-03-08T00:01:48.117Z,59.50
2019-03-08T00:02:48.107Z,59.16
2019-03-08T00:03:48.094Z,59.77
2019-03-08T00:04:48.148Z,59.29
2019-03-08T00:05:48.071Z,59.36
2019-03-08T00:06:48.065Z,58.54
2019-03-08T00:07:48.055Z,58.44
2019-03-08T00:08:48.044Z,58.85
2019-03-08T00:09:48.040Z,58.64
2019-03-08T00:10:48.070Z,58.85
2019-03-08T00:11:48.011Z,58.95
2019-03-08T00:12:48.004Z,59.47
2019-03-08T00:13:47.989Z,59.16
2019-03-08T00:14:47.989Z,59.26
2019-03-08T00:15:47.967Z,58.95
2019-03-08T00:16:48.013Z,59.16
2019-03-08T00:17:47.946Z,60.29
2019-03-08T00:18:47.941Z,60.70
2019-03-08T00:19:47.932Z,60.21
2019-03-08T00:20:47.905Z,60.70
2019-03-08T00:21:47.902Z,60.83
2019-03-08T00:22:47.955Z,60.83
2019-03-08T00:23:47.879Z,60.31
2019-03-08T00:24:47.867Z,60.19
2019-03-08T00:25:47.857Z,60.19
2019-03-08T00:26:47.853Z,60.29
2019-03-08T00:27:47.835Z,60.19
2019-03-08T00:28:47.879Z,61.21
2019-03-08T00:29:47.818Z,61.14
2019-03-08T00:30:47.807Z,61.04
2019-03-08T00:31:47.800Z,61.86
2019-03-08T00:32:47.781Z,61.24
2019-03-08T00:33:47.786Z,62.48
2019-03-08T00:34:47.822Z,62.16
2019-03-08T00:35:47.761Z,61.44
2019-03-08T00:36:47.749Z,61.65
2019-03-08T00:37:47.729Z,61.35
2019-03-08T00:38:47.721Z,61.76
2019-03-08T00:39:47.709Z,61.96
2019-03-08T00:40:47.751Z,61.86
2019-03-08T00:41:47.683Z,62.48
2019-03-08T00:42:47.678Z,61.96
2019-03-08T00:43:47.663Z,62.58
2019-03-08T00:44:47.650Z,63.53
2019-03-08T00:45:47.641Z,62.92
2019-03-08T00:46:47.676Z,63.71
2019-03-08T00:47:47.618Z,64.15
2019-03-08T00:48:47.619Z,64.15
2019-03-08T00:49:47.593Z,64.15
2019-03-08T00:50:47.586Z,63.64
2019-03-08T00:51:47.577Z,63.94
2019-03-08T00:52:47.618Z,64.04
2019-03-08T00:53:47.554Z,63.84
2019-03-08T00:54:47.546Z,63.53
2019-03-08T00:55:47.538Z,63.12
2019-03-08T00:56:47.527Z,62.99
2019-03-08T00:57:47.516Z,64.01
2019-03-08T00:58:47.565Z,63.74
2019-03-08T00:59:47.491Z,62.92
2019-03-08T01:00:47.478Z,62.48
2019-03-08T01:01:47.496Z,61.96
2019-03-08T01:02:47.453Z,62.16
2019-03-08T01:03:47.450Z,62.16
2019-03-08T01:04:47.481Z,62.58
2019-03-08T01:05:47.436Z,64.01
2019-03-08T01:06:47.423Z,62.81
2019-03-08T01:07:47.413Z,63.22
2019-03-08T01:08:47.392Z,62.81
2019-03-08T01:09:47.382Z,63.43
2019-03-08T01:10:47.414Z,62.92
2019-03-08T01:11:47.360Z,62.92
2019-03-08T01:12:47.350Z,62.19
2019-03-08T01:13:47.350Z,60.86
2019-03-08T01:14:47.331Z,60.21
2019-03-08T01:15:47.318Z,60.93
2019-03-08T01:16:47.363Z,60.08
2019-03-08T01:17:47.298Z,60.31
2019-03-08T01:18:47.287Z,59.29
2019-03-08T01:19:47.275Z,60.49
2019-03-08T01:20:47.261Z,59.26
2019-03-08T01:21:47.277Z,60.80
2019-03-08T01:22:47.310Z,60.08
2019-03-08T01:23:47.256Z,59.67
2019-03-08T01:24:47.220Z,59.06
2019-03-08T01:25:47.209Z,59.47
2019-03-08T01:26:47.216Z,59.47
2019-03-08T01:27:47.204Z,59.88
2019-03-08T01:28:47.239Z,60.70
2019-03-08T01:29:47.164Z,59.47
2019-03-08T01:30:47.158Z,60.08
2019-03-08T01:31:47.149Z,60.70
2019-03-08T01:32:47.148Z,60.49
2019-03-08T01:33:47.137Z,60.60
2019-03-08T01:34:47.175Z,60.70
2019-03-08T01:35:47.100Z,60.29
2019-03-08T01:36:47.088Z,60.80
2019-03-08T01:37:47.094Z,60.83
2019-03-08T01:38:47.072Z,60.80
2019-03-08T01:39:47.065Z,60.29
2019-03-08T01:40:47.104Z,60.19
2019-03-08T01:41:47.037Z,61.21
2019-03-08T01:42:47.041Z,61.62
2019-03-08T01:43:47.021Z,61.72
2019-03-08T01:44:47.007Z,62.06
2019-03-08T01:45:47.017Z,61.14
2019-03-08T01:46:47.043Z,60.70
2019-03-08T01:47:46.984Z,60.91
2019-03-08T01:48:46.973Z,62.04
2019-03-08T01:49:46.951Z,61.93
2019-03-08T01:50:46.974Z,60.70
2019-03-08T01:51:46.968Z,61.42
2019-03-08T01:52:47.682Z,60.80
2019-03-08T01:53:46.906Z,60.60
2019-03-08T01:54:46.905Z,60.70
2019-03-08T01:55:46.891Z,61.11
2019-03-08T01:56:46.884Z,60.91
2019-03-08T01:57:46.870Z,60.19
2019-03-08T01:58:46.913Z,60.60
2019-03-08T01:59:46.843Z,60.19
2019-03-08T02:00:46.832Z,60.70
2019-03-08T02:01:46.823Z,61.11
2019-03-08T02:02:46.814Z,61.11
2019-03-08T02:03:46.795Z,61.83
2019-03-08T02:04:46.856Z,61.52
2019-03-08T02:05:46.778Z,61.32
2019-03-08T02:06:46.779Z,60.80
2019-03-08T02:07:46.757Z,61.21
2019-03-08T02:08:46.746Z,61.11
2019-03-08T02:09:46.734Z,61.83
2019-03-08T02:10:46.769Z,62.96
2019-03-08T02:11:46.716Z,64.40
2019-03-08T02:12:46.705Z,66.07
2019-03-08T02:13:46.708Z,67.54
2019-03-08T02:14:46.683Z,68.67
2019-03-08T02:15:46.667Z,68.67
2019-03-08T02:16:46.727Z,70.04
2019-03-08T02:17:46.660Z,70.04
2019-03-08T02:18:46.635Z,68.70
2019-03-08T02:19:46.632Z,68.60
2019-03-08T02:20:46.610Z,69.22
2019-03-08T02:21:46.600Z,69.53
2019-03-08T02:22:46.651Z,68.50
2019-03-08T02:23:46.582Z,68.19
2019-03-08T02:24:46.568Z,68.08
2019-03-08T02:25:46.561Z,68.08
2019-03-08T02:26:46.571Z,68.40
2019-03-08T02:27:46.544Z,67.47
2019-03-08T02:28:46.584Z,68.19
2019-03-08T02:29:46.520Z,67.98
2019-03-08T02:30:46.507Z,66.34
2019-03-08T02:31:46.504Z,67.47
2019-03-08T02:32:46.500Z,67.65
2019-03-08T02:33:46.496Z,68.60
2019-03-08T02:34:46.517Z,67.68
2019-03-08T02:35:46.451Z,67.44
2019-03-08T02:36:46.444Z,67.23
2019-03-08T02:37:46.432Z,67.54
2019-03-08T02:38:46.416Z,67.65
2019-03-08T02:39:46.410Z,67.75
2019-03-08T02:40:46.448Z,66.20
2019-03-08T02:41:46.384Z,67.44
2019-03-08T02:42:46.375Z,66.41
2019-03-08T02:43:46.362Z,67.65
2019-03-08T02:44:46.352Z,67.44
2019-03-08T02:45:46.337Z,67.54
2019-03-08T02:46:46.400Z,66.20
2019-03-08T02:47:46.320Z,66.51
2019-03-08T02:48:46.307Z,67.03
2019-03-08T02:49:46.304Z,67.95
2019-03-08T02:50:46.286Z,67.98
2019-03-08T02:51:46.283Z,68.60
2019-03-08T02:52:46.307Z,67.68
2019-03-08T02:53:46.255Z,68.29
2019-03-08T02:54:46.248Z,67.57
2019-03-08T02:55:46.232Z,68.19
2019-03-08T02:56:46.225Z,68.80
2019-03-08T02:57:46.220Z,68.29
2019-03-08T02:58:46.252Z,68.40
2019-03-08T02:59:46.190Z,68.08
2019-03-08T03:00:46.199Z,68.50
2019-03-08T03:01:46.171Z,69.32
2019-03-08T03:02:46.165Z,68.50
2019-03-08T03:03:46.148Z,68.08
2019-03-08T03:04:46.190Z,68.40
2019-03-08T03:05:46.148Z,67.68
2019-03-08T03:06:46.116Z,67.57
2019-03-08T03:07:46.104Z,68.40
2019-03-08T03:08:46.102Z,68.37
2019-03-08T03:09:46.081Z,68.50
2019-03-08T03:10:46.121Z,67.57
2019-03-08T03:11:46.061Z,67.88
2019-03-08T03:12:46.042Z,67.54
2019-03-08T03:13:46.038Z,67.54
2019-03-08T03:14:46.040Z,67.54
2019-03-08T03:15:46.013Z,67.23
2019-03-08T03:16:46.055Z,68.60
2019-03-08T03:17:45.994Z,66.85
2019-03-08T03:18:45.986Z,66.44
2019-03-08T03:19:45.981Z,66.64
2019-03-08T03:20:45.965Z,67.85
2019-03-08T03:21:45.949Z,66.82
2019-03-08T03:22:45.997Z,66.20
2019-03-08T03:23:45.939Z,66.41
2019-03-08T03:24:45.927Z,67.26
2019-03-08T03:25:45.913Z,67.47
2019-03-08T03:26:45.914Z,66.34
2019-03-08T03:27:45.885Z,66.54
2019-03-08T03:28:45.923Z,66.54
2019-03-08T03:29:45.875Z,66.54
2019-03-08T03:30:45.862Z,66.96
2019-03-08T03:31:45.840Z,67.57
2019-03-08T03:32:45.840Z,67.98
2019-03-08T03:33:45.838Z,67.98
2019-03-08T03:34:45.859Z,67.36
2019-03-08T03:35:45.800Z,67.81
2019-03-08T03:36:45.786Z,68.22
2019-03-08T03:37:45.779Z,69.97
2019-03-08T03:38:45.774Z,69.90
2019-03-08T03:39:45.755Z,70.10
2019-03-08T03:40:45.798Z,70.10
2019-03-08T03:41:45.734Z,70.42
2019-03-08T03:42:45.715Z,70.38
2019-03-08T03:43:45.717Z,70.72
2019-03-08T03:44:45.725Z,71.96
2019-03-08T03:45:45.688Z,72.47
2019-03-08T03:46:45.736Z,73.33
2019-03-08T03:47:45.673Z,73.23
2019-03-08T03:48:45.668Z,73.85
2019-03-08T03:49:45.650Z,73.13
2019-03-08T03:50:45.641Z,73.54
2019-03-08T03:51:45.624Z,72.92
2019-03-08T03:52:45.672Z,72.61
2019-03-08T03:53:45.596Z,73.57
2019-03-08T03:54:45.589Z,73.98
2019-03-08T03:55:45.578Z,73.64
2019-03-08T03:56:45.583Z,72.44
2019-03-08T03:57:45.556Z,73.57
2019-03-08T03:58:45.599Z,73.26
2019-03-08T03:59:45.535Z,72.75
2019-03-08T04:00:45.526Z,72.54
2019-03-08T04:01:45.536Z,72.09
2019-03-08T04:02:45.509Z,73.23
2019-03-08T04:03:45.506Z,72.13
2019-03-08T04:04:45.542Z,71.78
2019-03-08T04:05:45.471Z,72.20
2019-03-08T04:06:45.461Z,72.13
2019-03-08T04:07:45.471Z,71.37
2019-03-08T04:08:45.438Z,71.30
2019-03-08T04:09:45.430Z,73.05
2019-03-08T04:10:45.471Z,72.13
2019-03-08T04:11:45.419Z,70.79
2019-03-08T04:12:45.409Z,71.61
2019-03-08T04:13:45.390Z,71.51
2019-03-08T04:14:45.374Z,72.44
2019-03-08T04:15:45.371Z,71.30
2019-03-08T04:16:45.413Z,71.82
2019-03-08T04:17:45.358Z,72.13
2019-03-08T04:18:45.333Z,71.82
2019-03-08T04:19:45.349Z,71.10
2019-03-08T04:20:45.310Z,70.48
2019-03-08T04:21:45.332Z,71.41
2019-03-08T04:22:45.337Z,71.30
2019-03-08T04:23:45.345Z,71.41
2019-03-08T04:24:45.264Z,71.61
2019-03-08T04:25:45.264Z,71.10
2019-03-08T04:26:45.258Z,70.28
2019-03-08T04:27:45.267Z,70.28
2019-03-08T04:28:45.304Z,70.58
2019-03-08T04:29:45.213Z,71.51
2019-03-08T04:30:45.206Z,72.03
2019-03-08T04:31:45.197Z,71.75
2019-03-08T04:32:45.191Z,72.27
2019-03-08T04:33:45.171Z,72.37
2019-03-08T04:34:45.228Z,71.95
2019-03-08T04:35:45.147Z,72.37
2019-03-08T04:36:45.169Z,72.06
2019-03-08T04:37:45.124Z,72.27
2019-03-08T04:38:45.126Z,71.95
2019-03-08T04:39:45.109Z,72.67
2019-03-08T04:40:45.183Z,72.47
2019-03-08T04:41:45.091Z,72.06
2019-03-08T04:42:45.087Z,72.16
2019-03-08T04:43:45.071Z,72.47
2019-03-08T04:44:45.073Z,71.13
2019-03-08T04:45:45.037Z,71.23
2019-03-08T04:46:45.075Z,70.20
2019-03-08T04:47:45.033Z,70.92
2019-03-08T04:48:45.008Z,71.64
2019-03-08T04:49:45.022Z,70.62
2019-03-08T04:50:45.003Z,71.13
2019-03-08T04:51:44.988Z,70.41
2019-03-08T04:52:45.267Z,71.44
2019-03-08T04:53:44.963Z,70.62
2019-03-08T04:54:44.948Z,71.95
2019-03-08T04:55:44.937Z,71.30
2019-03-08T04:56:44.936Z,70.62
2019-03-08T04:57:44.944Z,70.31
2019-03-08T04:58:44.951Z,70.82
2019-03-08T04:59:44.911Z,71.44
2019-03-08T05:00:44.875Z,71.44
2019-03-08T05:01:44.881Z,71.44
2019-03-08T05:02:44.875Z,71.13
2019-03-08T05:03:44.855Z,71.34
2019-03-08T05:04:44.894Z,70.62
2019-03-08T05:05:44.828Z,71.95
2019-03-08T05:06:44.820Z,71.64
2019-03-08T05:07:44.854Z,71.64
2019-03-08T05:08:45.852Z,72.06
2019-03-08T05:09:44.772Z,72.47
2019-03-08T05:10:44.828Z,72.67
2019-03-08T05:11:44.766Z,71.95
2019-03-08T05:12:44.746Z,71.13
2019-03-08T05:13:44.746Z,71.64
2019-03-08T05:14:44.726Z,71.34
2019-03-08T05:15:44.720Z,71.64
2019-03-08T05:16:44.831Z,72.27
2019-03-08T05:17:44.690Z,71.95
2019-03-08T05:18:44.690Z,71.95
2019-03-08T05:19:44.698Z,70.72
2019-03-08T05:20:44.682Z,71.13
2019-03-08T05:21:44.649Z,70.92
2019-03-08T05:22:44.718Z,71.34
2019-03-08T05:23:44.629Z,70.51
2019-03-08T05:24:44.682Z,71.95
2019-03-08T05:25:44.622Z,72.27
2019-03-08T05:26:44.599Z,71.13
2019-03-08T05:27:44.583Z,71.44
2019-03-08T05:28:44.619Z,71.34
2019-03-08T05:29:44.581Z,71.23
2019-03-08T05:30:44.552Z,71.85
2019-03-08T05:31:44.548Z,71.64
2019-03-08T05:32:44.536Z,71.75
2019-03-08T05:33:44.557Z,71.85
2019-03-08T05:34:44.622Z,72.27
2019-03-08T05:35:44.507Z,71.99
2019-03-08T05:37:46.749Z,71.85
2019-03-08T05:38:45.390Z,72.09
2019-03-08T05:39:45.395Z,71.55
2019-03-08T05:40:45.323Z,71.75
2019-03-08T05:41:45.334Z,71.64
2019-03-08T05:42:45.309Z,72.16
2019-03-08T05:43:45.310Z,71.95
2019-03-08T05:44:45.286Z,72.16
2019-03-08T05:45:45.337Z,72.27
2019-03-08T05:46:45.266Z,71.64
2019-03-08T05:47:45.275Z,71.03
2019-03-08T05:48:45.241Z,71.75
2019-03-08T05:49:45.249Z,71.64
2019-03-08T05:50:45.218Z,70.41
2019-03-08T05:51:45.264Z,71.41
2019-03-08T05:52:45.205Z,71.13
2019-03-08T05:53:45.189Z,71.44
2019-03-08T05:54:45.183Z,71.51
2019-03-08T05:55:45.191Z,70.62
2019-03-08T05:56:45.158Z,71.44
2019-03-08T05:57:45.233Z,70.62
2019-03-08T05:58:45.132Z,71.55
2019-03-08T05:59:45.527Z,72.06
2019-03-08T06:00:45.106Z,71.13
2019-03-08T06:01:45.125Z,71.13
2019-03-08T06:02:45.095Z,70.62
2019-03-08T06:03:45.133Z,70.72
2019-03-08T06:04:45.075Z,70.58
2019-03-08T06:05:45.055Z,70.28
2019-03-08T06:06:45.044Z,70.17
2019-03-08T06:07:45.037Z,70.17
2019-03-08T06:08:45.027Z,69.96
2019-03-08T06:09:45.071Z,70.58
2019-03-08T06:10:45.009Z,70.72
2019-03-08T06:11:45.024Z,70.62
2019-03-08T06:12:44.986Z,70.72
2019-03-08T06:13:44.973Z,70.17
2019-03-08T06:14:44.987Z,69.96
2019-03-08T06:15:45.005Z,70.07
2019-03-08T06:16:44.954Z,70.28
2019-03-08T06:17:44.937Z,70.07
2019-03-08T06:18:44.936Z,70.37
2019-03-08T06:19:44.902Z,70.17
2019-03-08T06:20:44.957Z,70.37
2019-03-08T06:21:44.941Z,70.89
2019-03-08T06:22:44.906Z,71.30
2019-03-08T06:23:44.864Z,70.79
2019-03-08T06:24:44.875Z,70.48
2019-03-08T06:25:44.842Z,69.86
2019-03-08T06:26:44.859Z,70.37
2019-03-08T06:27:44.873Z,70.17
2019-03-08T06:28:44.807Z,70.58
2019-03-08T06:29:44.798Z,69.89
2019-03-08T06:30:44.787Z,70.37
2019-03-08T06:31:44.779Z,70.37
2019-03-08T06:32:44.777Z,69.96
2019-03-08T06:33:44.820Z,70.07
2019-03-08T06:34:44.745Z,69.14
2019-03-08T06:35:44.755Z,69.55
2019-03-08T06:36:44.739Z,69.76
2019-03-08T06:37:44.738Z,68.83
2019-03-08T06:38:44.704Z,69.55
2019-03-08T06:39:44.765Z,69.96
2019-03-08T06:40:44.683Z,70.07
2019-03-08T06:41:44.700Z,69.86
2019-03-08T06:42:44.659Z,70.07
2019-03-08T06:43:44.671Z,70.17
2019-03-08T06:44:44.691Z,70.17
2019-03-08T06:45:44.711Z,69.96
2019-03-08T06:46:44.615Z,69.96
2019-03-08T06:47:44.614Z,69.86
2019-03-08T06:48:44.598Z,69.96
2019-03-08T06:49:44.586Z,69.76
2019-03-08T06:50:44.573Z,70.28
2019-03-08T06:51:44.628Z,70.28
2019-03-08T06:52:44.556Z,69.24
2019-03-08T06:53:44.563Z,70.17
2019-03-08T06:54:44.550Z,68.29
2019-03-08T06:55:44.533Z,69.11
2019-03-08T06:56:44.511Z,69.35
2019-03-08T06:57:44.573Z,68.08
2019-03-08T06:58:44.483Z,70.07
2019-03-08T06:59:44.479Z,70.17
2019-03-08T07:00:44.459Z,70.04
2019-03-08T07:01:44.455Z,68.32
2019-03-08T07:02:44.442Z,69.42
2019-03-08T07:03:44.485Z,68.18
2019-03-08T07:04:44.422Z,68.29
2019-03-08T07:05:44.414Z,70.04
2019-03-08T07:06:44.402Z,69.01
2019-03-08T07:07:44.399Z,68.39
2019-03-08T07:08:44.382Z,68.90
2019-03-08T07:09:44.421Z,68.39
2019-03-08T07:10:44.372Z,68.18
2019-03-08T07:11:44.360Z,68.66
2019-03-08T07:12:44.338Z,68.05
2019-03-08T07:13:44.324Z,68.66
2019-03-08T07:14:44.308Z,68.56
2019-03-08T07:15:44.347Z,68.56
2019-03-08T07:16:44.313Z,67.91
2019-03-08T07:17:44.280Z,67.74
2019-03-08T07:18:44.294Z,69.35
2019-03-08T07:19:44.260Z,66.64
2019-03-08T07:20:44.280Z,66.37
2019-03-08T07:21:44.288Z,66.58
2019-03-08T07:22:44.250Z,67.26
2019-03-08T07:23:44.217Z,67.60
2019-03-08T07:24:44.218Z,66.27
2019-03-08T07:25:51.192Z,66.67
2019-03-08T07:26:45.237Z,66.78
2019-03-08T07:27:44.180Z,66.58
2019-03-08T07:28:44.179Z,66.58
2019-03-08T07:29:44.146Z,66.58
2019-03-08T07:30:44.139Z,66.34
2019-03-08T07:31:44.133Z,66.54
2019-03-08T07:32:44.182Z,66.44
2019-03-08T07:33:52.701Z,66.44
2019-03-08T07:34:45.090Z,68.29
2019-03-08T07:35:44.077Z,67.16
2019-03-08T07:36:44.077Z,66.64
2019-03-08T07:37:44.058Z,67.98
2019-03-08T07:38:44.133Z,67.57
2019-03-08T07:39:44.033Z,66.54
2019-03-08T07:40:44.028Z,66.96
2019-03-08T07:41:44.017Z,67.50
2019-03-08T07:42:45.105Z,66.16
2019-03-08T07:43:44.007Z,66.47
2019-03-08T07:44:44.042Z,66.47
2019-03-08T07:45:44.366Z,67.36
2019-03-08T07:46:43.968Z,68.19
2019-03-08T07:47:43.949Z,68.08
2019-03-08T07:48:43.949Z,67.50
2019-03-08T07:49:43.930Z,67.47
2019-03-08T07:50:43.968Z,68.02
2019-03-08T07:51:43.913Z,68.94
2019-03-08T07:52:43.895Z,67.81
2019-03-08T07:53:43.887Z,67.81
2019-03-08T07:54:52.464Z,68.19
2019-03-08T07:55:46.424Z,68.22
2019-03-08T07:56:43.855Z,68.08
2019-03-08T07:57:43.846Z,66.75
2019-03-08T07:58:43.829Z,66.64
2019-03-08T07:59:53.188Z,66.41
2019-03-08T08:00:44.809Z,66.72
2019-03-08T08:01:43.855Z,65.48
2019-03-08T08:02:43.787Z,66.41
2019-03-08T08:03:43.786Z,64.94
2019-03-08T08:04:43.773Z,65.77
2019-03-08T08:05:43.761Z,65.48
2019-03-08T08:06:43.749Z,64.84
2019-03-08T08:07:43.904Z,65.77
2019-03-08T08:08:51.375Z,64.73
2019-03-08T08:09:44.713Z,64.84
2019-03-08T08:10:43.701Z,65.25
2019-03-08T08:11:43.690Z,66.31
2019-03-08T08:12:43.678Z,65.05
2019-03-08T08:13:43.724Z,64.53
2019-03-08T08:14:43.655Z,64.53
2019-03-08T08:15:45.454Z,63.89
2019-03-08T08:16:43.643Z,62.85
2019-03-08T08:17:43.630Z,62.96
2019-03-08T08:18:43.611Z,63.44
2019-03-08T08:19:43.649Z,63.34
2019-03-08T08:20:43.595Z,64.75
2019-03-08T08:21:43.582Z,62.49
2019-03-08T08:22:43.566Z,61.44
2019-03-08T08:23:43.556Z,62.15
2019-03-08T08:24:43.547Z,62.36
2019-03-08T08:25:43.588Z,62.15
2019-03-08T08:26:43.531Z,61.20
2019-03-08T08:27:43.518Z,61.27
2019-03-08T08:28:49.965Z,61.69
2019-03-08T08:29:44.501Z,60.94
2019-03-08T08:30:43.489Z,59.30
2019-03-08T08:31:43.537Z,60.53
2019-03-08T08:32:43.462Z,58.66
2019-03-08T08:33:43.456Z,59.07
2019-03-08T08:34:43.443Z,58.45
2019-03-08T08:35:43.438Z,59.89
2019-03-08T08:36:43.417Z,58.33
2019-03-08T08:37:43.459Z,57.38
2019-03-08T08:38:43.393Z,58.37
2019-03-08T08:39:43.384Z,56.43
2019-03-08T08:40:43.376Z,56.76
2019-03-08T08:41:43.367Z,57.84
2019-03-08T08:42:43.355Z,59.92
2019-03-08T08:43:43.400Z,58.38
2019-03-08T08:44:43.328Z,59.77
2019-03-08T08:45:43.319Z,61.44
2019-03-08T08:46:43.309Z,61.33
2019-03-08T08:47:43.296Z,60.10
2019-03-08T08:48:43.286Z,60.82
2019-03-08T08:49:43.325Z,61.13
2019-03-08T08:50:43.266Z,60.51
2019-03-08T08:51:43.254Z,61.64
2019-03-08T08:52:43.260Z,60.79
2019-03-08T08:53:43.238Z,60.51
2019-03-08T08:54:43.219Z,60.79
2019-03-08T08:55:43.789Z,61.89
2019-03-08T08:56:43.202Z,61.79
2019-03-08T08:57:43.199Z,60.17
2019-03-08T08:58:43.182Z,60.49
2019-03-08T08:59:43.186Z,60.82
2019-03-08T09:00:43.151Z,60.49
2019-03-08T09:01:43.189Z,60.28
2019-03-08T09:02:43.135Z,60.72
2019-03-08T09:03:43.119Z,61.20
2019-03-08T09:04:43.116Z,61.02
2019-03-08T09:05:43.100Z,61.33
2019-03-08T09:06:43.087Z,61.74
2019-03-08T09:07:43.136Z,62.36
2019-03-08T09:08:43.068Z,61.74
2019-03-08T09:09:43.056Z,62.49
2019-03-08T09:10:43.042Z,61.95
2019-03-08T09:11:48.423Z,64.00
2019-03-08T09:12:44.083Z,62.36
2019-03-08T09:13:43.011Z,61.87
2019-03-08T09:14:43.003Z,63.49
2019-03-08T09:15:42.988Z,64.61
2019-03-08T09:16:42.978Z,64.31
2019-03-08T09:17:42.965Z,62.15
2019-03-08T09:18:43.005Z,63.69
2019-03-08T09:19:42.944Z,63.42
2019-03-08T09:20:42.952Z,63.49
2019-03-08T09:21:42.920Z,63.49
2019-03-08T09:22:42.924Z,62.23
2019-03-08T09:23:42.895Z,62.43
2019-03-08T09:24:42.940Z,62.30
2019-03-08T09:25:42.871Z,61.96
2019-03-08T09:26:42.867Z,61.83
2019-03-08T09:27:42.849Z,59.17
2019-03-08T09:28:42.845Z,58.97
2019-03-08T09:29:42.833Z,60.58
2019-03-08T09:30:42.868Z,58.97
2019-03-08T09:31:42.808Z,58.61
2019-03-08T09:32:42.797Z,59.80
2019-03-08T09:33:42.788Z,58.96
2019-03-08T09:34:42.774Z,56.61
2019-03-08T09:35:42.766Z,56.20
2019-03-08T09:36:42.803Z,56.61
2019-03-08T09:37:42.752Z,58.55
2019-03-08T09:38:42.733Z,56.74
2019-03-08T09:39:42.726Z,56.63
2019-03-08T09:40:42.714Z,57.48
2019-03-08T09:41:42.718Z,58.50
2019-03-08T09:42:42.737Z,59.12
2019-03-08T09:43:42.676Z,56.94
2019-03-08T09:44:42.667Z,56.46
2019-03-08T09:45:42.660Z,56.33
2019-03-08T09:46:42.644Z,56.10
2019-03-08T09:47:42.637Z,55.28
2019-03-08T09:48:48.690Z,56.63
2019-03-08T09:49:43.616Z,56.25
2019-03-08T09:50:42.603Z,57.07
2019-03-08T09:51:42.592Z,56.92
2019-03-08T09:52:42.584Z,54.54
2019-03-08T09:53:42.564Z,57.02
2019-03-08T09:54:42.606Z,56.40
2019-03-08T09:55:42.545Z,53.83
2019-03-08T09:56:42.535Z,54.51
2019-03-08T09:57:42.522Z,54.49
2019-03-08T09:58:42.516Z,53.98
2019-03-08T09:59:42.501Z,53.96
2019-03-08T10:00:42.564Z,54.16
2019-03-08T10:01:42.481Z,54.16
2019-03-08T10:02:42.474Z,54.59
2019-03-08T10:03:46.272Z,53.77
2019-03-08T10:04:42.449Z,54.18
2019-03-08T10:05:42.439Z,54.90
2019-03-08T10:06:42.485Z,54.79
2019-03-08T10:07:42.414Z,55.18
2019-03-08T10:08:42.404Z,55.15
2019-03-08T10:09:42.391Z,54.24
2019-03-08T10:10:42.381Z,53.85
2019-03-08T10:11:42.375Z,53.64
2019-03-08T10:12:42.411Z,54.26
2019-03-08T10:13:42.353Z,54.08
2019-03-08T10:14:42.337Z,54.21
2019-03-08T10:15:42.329Z,54.57
2019-03-08T10:16:42.318Z,56.02
2019-03-08T10:17:42.307Z,56.56
2019-03-08T10:18:42.343Z,57.15
2019-03-08T10:19:42.289Z,56.10
2019-03-08T10:20:42.284Z,54.36
2019-03-08T10:21:42.264Z,56.20
2019-03-08T10:22:42.257Z,56.02
2019-03-08T10:23:42.241Z,57.07
2019-03-08T10:24:42.308Z,56.87
2019-03-08T10:25:42.225Z,59.25
2019-03-08T10:26:42.222Z,57.30
2019-03-08T10:27:42.200Z,58.53
2019-03-08T10:28:42.189Z,58.56
2019-03-08T10:29:42.177Z,58.43
2019-03-08T10:30:42.222Z,56.79
2019-03-08T10:31:42.158Z,57.51
2019-03-08T10:32:42.146Z,57.51
2019-03-08T10:33:46.569Z,57.51
2019-03-08T10:34:42.123Z,56.89
2019-03-08T10:35:42.113Z,57.07
2019-03-08T10:36:42.153Z,56.94
2019-03-08T10:37:42.089Z,56.61
2019-03-08T10:38:42.083Z,54.95
2019-03-08T10:39:42.073Z,54.49
2019-03-08T10:40:42.057Z,56.23
2019-03-08T10:41:42.041Z,54.18
2019-03-08T10:42:42.089Z,55.10
2019-03-08T10:43:42.025Z,54.69
2019-03-08T10:44:42.015Z,55.05
2019-03-08T10:45:42.002Z,53.75
2019-03-08T10:46:42.009Z,54.59
2019-03-08T10:47:42.605Z,54.46
2019-03-08T10:48:42.019Z,54.46
2019-03-08T10:49:41.960Z,55.28
2019-03-08T10:50:41.946Z,53.44
2019-03-08T10:51:41.938Z,54.39
2019-03-08T10:52:43.619Z,54.59
2019-03-08T10:53:43.365Z,54.80
2019-03-08T10:54:44.558Z,54.13
2019-03-08T10:55:43.195Z,56.46
2019-03-08T10:56:43.122Z,53.90
2019-03-08T10:57:42.320Z,54.10
2019-03-08T10:58:41.859Z,54.08
2019-03-08T10:59:41.865Z,54.77
2019-03-08T11:00:41.894Z,55.08
2019-03-08T11:01:41.827Z,54.97
2019-03-08T11:02:41.818Z,52.91
2019-03-08T11:03:41.806Z,52.80
2019-03-08T11:04:41.797Z,52.58
2019-03-08T11:05:41.778Z,53.36
2019-03-08T11:06:41.818Z,52.17
2019-03-08T11:07:41.772Z,53.08
2019-03-08T11:08:41.751Z,51.48
2019-03-08T11:09:41.744Z,52.83
2019-03-08T11:10:41.721Z,53.11
2019-03-08T11:11:41.714Z,53.21
2019-03-08T11:12:41.757Z,51.86
2019-03-08T11:13:43.442Z,52.88
2019-03-08T11:14:41.684Z,53.19
2019-03-08T11:15:41.679Z,52.29
2019-03-08T11:16:43.385Z,53.29
2019-03-08T11:17:50.347Z,51.96
2019-03-08T11:18:42.689Z,52.25
2019-03-08T11:19:41.632Z,51.96
2019-03-08T11:20:41.632Z,52.78
2019-03-08T11:21:41.608Z,53.16
2019-03-08T11:22:41.601Z,50.92
2019-03-08T11:23:41.599Z,50.92
2019-03-08T11:24:41.626Z,51.63
2019-03-08T11:25:41.560Z,50.23
2019-03-08T11:26:41.551Z,50.74
2019-03-08T11:27:41.550Z,51.04
2019-03-08T11:28:41.528Z,51.04
2019-03-08T11:29:41.522Z,50.86
2019-03-08T11:30:41.563Z,51.83
2019-03-08T11:31:41.522Z,54.59
2019-03-08T11:32:41.488Z,53.13
2019-03-08T11:33:41.472Z,53.23
2019-03-08T11:34:41.462Z,52.06
2019-03-08T11:35:41.450Z,51.22
2019-03-08T11:36:41.525Z,49.85
2019-03-08T11:38:48.462Z,50.08
2019-03-08T11:39:41.405Z,48.35
2019-03-08T11:40:41.396Z,48.72
2019-03-08T11:41:41.390Z,48.19
2019-03-08T11:42:41.453Z,44.34
2019-03-08T11:43:41.404Z,42.76
2019-03-08T11:44:41.353Z,39.87
2019-03-08T11:45:41.341Z,38.04
2019-03-08T11:46:41.398Z,39.01
2019-03-08T11:47:41.317Z,39.51
2019-03-08T11:48:41.410Z,37.46
2019-03-08T11:49:42.549Z,38.81
2019-03-08T11:50:41.337Z,38.00
2019-03-08T11:51:41.286Z,38.15
2019-03-08T11:52:41.289Z,38.75
2019-03-08T11:53:41.253Z,40.25
2019-03-08T11:54:41.343Z,37.75
2019-03-08T11:55:41.230Z,38.07
2019-03-08T11:56:41.235Z,42.92
2019-03-08T11:57:41.214Z,42.96
2019-03-08T11:58:41.199Z,44.77
2019-03-08T11:59:41.192Z,45.34
2019-03-08T12:00:41.398Z,43.71
2019-03-08T12:01:41.165Z,44.79
2019-03-08T12:02:41.158Z,41.32
2019-03-08T12:03:41.148Z,37.90
2019-03-08T12:04:41.132Z,41.14
2019-03-08T12:05:41.135Z,41.31
2019-03-08T12:06:41.162Z,43.00
2019-03-08T12:07:41.107Z,43.85
2019-03-08T12:08:41.122Z,43.47
2019-03-08T12:09:41.106Z,40.45
2019-03-08T12:10:41.064Z,39.29
2019-03-08T12:11:41.058Z,38.63
2019-03-08T12:12:41.109Z,38.81
2019-03-08T12:13:41.040Z,37.54
2019-03-08T12:14:41.031Z,39.58
2019-03-08T12:15:41.016Z,37.55
2019-03-08T12:16:41.015Z,36.08
2019-03-08T12:17:41.006Z,35.21
2019-03-08T12:18:41.064Z,34.61
2019-03-08T12:19:40.997Z,34.72
2019-03-08T12:20:40.958Z,36.49
2019-03-08T12:21:40.951Z,39.56
2019-03-08T12:22:40.953Z,37.05
2019-03-08T12:23:40.925Z,39.78
2019-03-08T12:24:40.971Z,39.45
2019-03-08T12:25:41.076Z,38.55
2019-03-08T12:26:40.896Z,37.16
2019-03-08T12:27:40.877Z,37.21
2019-03-08T12:28:40.872Z,37.70
2019-03-08T12:29:40.910Z,39.60
2019-03-08T12:30:40.932Z,39.39
2019-03-08T12:31:40.837Z,41.80
2019-03-08T12:32:40.868Z,42.02
2019-03-08T12:33:40.814Z,42.98
2019-03-08T12:34:40.887Z,42.49
2019-03-08T12:35:40.801Z,43.30
2019-03-08T12:36:40.840Z,42.37
2019-03-08T12:37:40.768Z,43.10
2019-03-08T12:38:40.776Z,41.44
2019-03-08T12:39:40.759Z,43.02
2019-03-08T12:40:40.737Z,40.61
2019-03-08T12:41:40.750Z,41.27
2019-03-08T12:42:40.804Z,41.99
2019-03-08T12:43:40.707Z,41.70
2019-03-08T12:44:40.711Z,41.16
2019-03-08T12:45:40.688Z,38.72
2019-03-08T12:46:40.690Z,37.74
2019-03-08T12:47:40.702Z,39.17
2019-03-08T12:48:40.727Z,40.20
2019-03-08T12:49:40.637Z,40.62
2019-03-08T12:50:40.638Z,43.23
2019-03-08T12:51:40.635Z,39.70
2019-03-08T12:52:40.621Z,36.34
2019-03-08T12:53:40.597Z,37.79
2019-03-08T12:54:40.724Z,38.01